createdAt,value
2022-08-30T00:00:41.557Z,8.00
2022-08-30T00:05:45.715Z,8.65
2022-08-30T00:10:51.343Z,8.05
2022-08-30T00:15:54.721Z,7.97
2022-08-30T00:20:57.565Z,7.75
2022-08-30T00:26:00.845Z,7.85
2022-08-30T00:31:04.750Z,8.05
2022-08-30T00:36:07.613Z,8.30
2022-08-30T00:41:10.272Z,8.00
2022-08-30T00:46:13.053Z,7.90
2022-08-30T00:51:17.252Z,8.20
2022-08-30T00:56:20.144Z,8.15
2022-08-30T01:01:24.332Z,8.55
2022-08-30T01:06:32.510Z,8.40
2022-08-30T01:11:38.237Z,8.43
2022-08-30T01:16:44.260Z,8.10
2022-08-30T01:21:51.836Z,8.68
2022-08-30T01:26:54.841Z,7.72
2022-08-30T01:31:57.622Z,8.15
2022-08-30T01:37:00.377Z,8.95
2022-08-30T01:42:04.282Z,6.95
2022-08-30T01:47:06.949Z,7.97
2022-08-30T01:52:09.656Z,8.10
2022-08-30T01:57:16.251Z,9.60
2022-08-30T02:02:23.281Z,8.75
2022-08-30T02:07:26.764Z,9.13
2022-08-30T02:12:30.425Z,8.98
2022-08-30T02:17:33.456Z,8.98
2022-08-30T02:22:36.509Z,9.30
2022-08-30T02:27:39.364Z,9.50
2022-08-30T02:32:45.416Z,10.10
2022-08-30T02:37:48.220Z,9.73
2022-08-30T02:42:51.692Z,10.77
2022-08-30T02:47:56.644Z,10.30
2022-08-30T02:52:59.304Z,10.00
2022-08-30T02:58:02.733Z,9.80
2022-08-30T03:03:05.400Z,9.90
2022-08-30T03:08:08.969Z,10.93
2022-08-30T03:13:11.962Z,9.32
2022-08-30T03:18:15.245Z,9.40
2022-08-30T03:23:21.916Z,9.48
2022-08-30T03:28:25.544Z,9.52
2022-08-30T03:33:28.391Z,9.95
2022-08-30T03:38:31.483Z,9.02
2022-08-30T03:43:34.401Z,10.27
2022-08-30T03:48:37.242Z,8.75
2022-08-30T03:53:39.968Z,9.15
2022-08-30T03:58:42.720Z,9.63
2022-08-30T04:03:45.523Z,10.18
2022-08-30T04:08:48.417Z,8.95
2022-08-30T04:13:52.069Z,8.70
2022-08-30T04:18:54.815Z,9.68
2022-08-30T04:23:57.448Z,9.13
2022-08-30T04:29:00.860Z,9.90
2022-08-30T04:34:03.735Z,10.50
2022-08-30T04:39:06.993Z,10.10
2022-08-30T04:44:15.869Z,9.75
2022-08-30T04:49:23.095Z,10.73
2022-08-30T04:54:25.789Z,10.70
2022-08-30T04:59:29.061Z,11.02
2022-08-30T05:04:31.827Z,11.50
2022-08-30T05:09:34.642Z,10.40
2022-08-30T05:14:37.230Z,12.18
2022-08-30T05:19:40.652Z,11.52
2022-08-30T05:24:43.854Z,12.73
2022-08-30T05:29:47.027Z,12.65
2022-08-30T05:34:49.720Z,12.15
2022-08-30T05:39:54.104Z,12.32
2022-08-30T05:44:56.794Z,12.98
2022-08-30T05:50:00.453Z,12.38
2022-08-30T05:55:04.419Z,13.52
2022-08-30T06:00:14.720Z,13.35
2022-08-30T06:05:17.390Z,13.57
2022-08-30T06:10:20.168Z,13.60
2022-08-30T06:15:22.958Z,11.93
2022-08-30T06:20:25.724Z,11.95
2022-08-30T06:25:28.422Z,12.68
2022-08-30T06:30:44.460Z,12.40
2022-08-30T06:35:58.505Z,12.43
2022-08-30T06:41:07.738Z,12.63
2022-08-30T06:46:14.300Z,11.25
2022-08-30T06:51:26.576Z,13.57
2022-08-30T06:56:31.162Z,13.27
2022-08-30T07:01:34.152Z,13.57
2022-08-30T07:06:36.908Z,12.65
2022-08-30T07:11:40.620Z,13.10
2022-08-30T07:16:44.604Z,12.88
2022-08-30T07:21:49.007Z,13.00
2022-08-30T07:26:52.609Z,11.30
2022-08-30T07:31:55.256Z,13.23
2022-08-30T07:36:57.965Z,12.18
2022-08-30T07:42:00.727Z,11.80
2022-08-30T07:47:04.444Z,12.15
2022-08-30T07:52:07.210Z,11.10
2022-08-30T07:57:10.223Z,11.75
2022-08-30T08:02:12.994Z,12.18
2022-08-30T08:07:15.861Z,11.65
2022-08-30T08:12:18.551Z,11.25
2022-08-30T08:17:21.254Z,10.38
2022-08-30T08:22:24.008Z,10.27
2022-08-30T08:27:26.835Z,9.95
2022-08-30T08:32:29.436Z,10.50
2022-08-30T08:37:32.141Z,12.60
2022-08-30T08:43:16.414Z,11.20
2022-08-30T08:49:00.063Z,13.25
2022-08-30T08:54:08.785Z,14.32
2022-08-30T08:59:12.689Z,11.82
2022-08-30T09:04:20.737Z,13.38
2022-08-30T09:09:49.697Z,15.05
2022-08-30T09:14:55.936Z,13.65
2022-08-30T09:20:00.196Z,13.65
2022-08-30T09:25:09.132Z,14.40
2022-08-30T09:30:18.153Z,14.77
2022-08-30T09:35:26.351Z,13.98
2022-08-30T09:40:41.679Z,15.98
2022-08-30T09:45:47.522Z,15.98
2022-08-30T09:51:08.505Z,14.10
2022-08-30T09:56:24.714Z,14.27
2022-08-30T10:01:37.094Z,15.18
2022-08-30T10:06:46.196Z,15.88
2022-08-30T10:12:03.748Z,13.15
2022-08-30T10:17:48.923Z,15.07
2022-08-30T10:23:00.342Z,14.00
2022-08-30T10:28:14.712Z,16.08
2022-08-30T10:33:25.514Z,12.20
2022-08-30T10:38:33.582Z,15.00
2022-08-30T10:44:04.521Z,14.30
2022-08-30T10:49:16.486Z,14.48
2022-08-30T10:54:40.971Z,14.27
2022-08-30T10:59:58.640Z,14.95
2022-08-30T11:05:26.620Z,14.23
2022-08-30T11:10:29.994Z,13.80
2022-08-30T11:15:37.889Z,13.32
2022-08-30T11:20:45.833Z,14.35
2022-08-30T11:25:57.876Z,14.35
2022-08-30T11:31:12.936Z,13.00
2022-08-30T11:36:46.151Z,14.80
2022-08-30T11:42:24.569Z,14.70
2022-08-30T11:47:42.319Z,14.07
2022-08-30T11:52:54.017Z,14.48
2022-08-30T11:58:06.955Z,14.77
2022-08-30T12:03:21.167Z,13.75
2022-08-30T12:08:36.332Z,15.05
2022-08-30T12:13:43.061Z,14.95
2022-08-30T12:18:51.724Z,13.35
2022-08-30T12:24:29.965Z,11.65
2022-08-30T12:29:32.641Z,11.75
2022-08-30T12:34:49.554Z,13.00
2022-08-30T12:40:07.538Z,13.43
2022-08-30T12:45:13.620Z,13.52
2022-08-30T12:50:20.528Z,12.55
2022-08-30T12:55:28.130Z,10.95
2022-08-30T13:00:39.788Z,10.02
2022-08-30T13:05:48.503Z,8.88
2022-08-30T13:11:11.281Z,10.25
2022-08-30T13:16:23.275Z,9.80
2022-08-30T13:21:32.338Z,8.85
2022-08-30T13:26:41.283Z,9.18
2022-08-30T13:31:44.172Z,8.68
2022-08-30T13:36:50.807Z,8.05
2022-08-30T13:41:54.238Z,7.38
2022-08-30T13:47:32.117Z,7.55
2022-08-30T13:52:23.059Z,7.18
2022-08-30T14:02:57.292Z,8.02
2022-08-30T14:08:02.923Z,7.82
2022-08-30T14:13:09.053Z,7.82
2022-08-30T14:18:15.853Z,7.22
2022-08-30T14:23:20.765Z,7.45
2022-08-30T14:28:23.603Z,4.43
2022-08-30T14:33:26.751Z,5.47
2022-08-30T14:38:29.417Z,4.97
2022-08-30T14:43:32.419Z,4.15
2022-08-30T14:48:37.158Z,4.78
2022-08-30T14:53:40.155Z,4.60
2022-08-30T14:58:43.804Z,5.50
2022-08-30T15:03:46.695Z,5.38
2022-08-30T15:08:49.824Z,4.90
2022-08-30T15:13:53.885Z,5.85
2022-08-30T15:18:58.354Z,5.13
2022-08-30T15:24:05.426Z,5.50
2022-08-30T15:29:09.156Z,5.68
2022-08-30T15:34:14.608Z,5.53
2022-08-30T15:39:17.823Z,5.70
2022-08-30T15:44:20.523Z,5.80
2022-08-30T15:49:24.132Z,5.28
2022-08-30T15:54:26.867Z,6.28
2022-08-30T15:59:32.584Z,6.30
2022-08-30T16:04:36.495Z,6.30
2022-08-30T16:09:40.680Z,5.57
2022-08-30T16:14:44.770Z,5.75
2022-08-30T16:19:47.555Z,5.97
2022-08-30T16:24:51.580Z,6.97
2022-08-30T16:29:54.675Z,6.50
2022-08-30T16:34:58.628Z,7.70
2022-08-30T16:40:01.559Z,7.28
2022-08-30T16:45:10.408Z,7.10
2022-08-30T16:50:16.790Z,7.00
2022-08-30T16:55:20.836Z,6.93
2022-08-30T17:00:24.322Z,6.25
2022-08-30T17:05:27.642Z,6.65
2022-08-30T17:10:33.232Z,6.53
2022-08-30T17:15:36.434Z,8.07
2022-08-30T17:20:44.442Z,9.13
2022-08-30T17:25:47.733Z,8.63
2022-08-30T17:30:51.039Z,7.25
2022-08-30T17:35:55.745Z,7.82
2022-08-30T17:41:06.790Z,7.57
2022-08-30T17:46:18.847Z,7.60
2022-08-30T17:51:21.577Z,7.60
2022-08-30T17:56:33.968Z,6.97
2022-08-30T18:01:38.989Z,9.15
2022-08-30T18:06:41.766Z,7.97
2022-08-30T18:11:45.773Z,8.15
2022-08-30T18:16:54.257Z,7.65
2022-08-30T18:21:58.741Z,8.50
2022-08-30T18:27:03.439Z,8.77
2022-08-30T18:32:06.618Z,7.93
2022-08-30T18:37:12.597Z,8.63
2022-08-30T18:42:15.805Z,8.38
2022-08-30T18:47:18.519Z,8.98
2022-08-30T18:52:28.188Z,9.02
2022-08-30T18:57:31.096Z,8.95
2022-08-30T19:02:35.133Z,9.23
2022-08-30T19:07:37.912Z,8.82
2022-08-30T19:12:42.311Z,9.23
2022-08-30T19:17:47.435Z,9.38
2022-08-30T19:23:09.269Z,9.20
2022-08-30T19:28:13.345Z,9.35
2022-08-30T19:33:17.481Z,10.80
2022-08-30T19:38:20.931Z,9.82
2022-08-30T19:43:24.728Z,8.52
2022-08-30T19:48:32.264Z,9.93
2022-08-30T19:53:36.532Z,9.00
2022-08-30T19:58:39.204Z,9.20
2022-08-30T20:03:42.006Z,8.65
2022-08-30T20:08:45.815Z,8.60
2022-08-30T20:13:48.703Z,9.82
2022-08-30T20:18:53.660Z,7.78
2022-08-30T20:23:56.818Z,7.13
2022-08-30T20:29:00.307Z,7.18
2022-08-30T20:34:04.379Z,6.85
2022-08-30T20:39:10.748Z,7.63
2022-08-30T20:44:20.052Z,7.25
2022-08-30T20:49:23.200Z,6.85
2022-08-30T20:54:27.676Z,7.40
2022-08-30T20:59:30.884Z,7.32
2022-08-30T21:04:34.067Z,7.88
2022-08-30T21:09:38.005Z,7.00
2022-08-30T21:14:40.703Z,7.32
2022-08-30T21:19:44.212Z,6.22
2022-08-30T21:24:47.065Z,6.57
2022-08-30T21:29:49.968Z,5.93
2022-08-30T21:35:11.187Z,6.57
2022-08-30T21:40:17.192Z,6.18
2022-08-30T21:45:20.279Z,5.72
2022-08-30T21:50:23.017Z,6.25
2022-08-30T21:55:25.658Z,6.47
2022-08-30T22:00:28.341Z,6.07
2022-08-30T22:05:30.979Z,5.57
2022-08-30T22:10:33.820Z,5.63
2022-08-30T22:15:36.636Z,5.03
2022-08-30T22:20:40.789Z,6.10
2022-08-30T22:25:44.281Z,5.50
2022-08-30T22:30:48.989Z,6.57
2022-08-30T22:35:51.713Z,6.30
2022-08-30T22:40:54.589Z,5.90
2022-08-30T22:45:58.091Z,6.30
2022-08-30T22:51:01.325Z,6.25
2022-08-30T22:56:11.504Z,6.00
2022-08-30T23:01:23.707Z,5.75
2022-08-30T23:06:27.629Z,6.15
2022-08-30T23:11:33.456Z,6.65
2022-08-30T23:16:36.681Z,6.30
2022-08-30T23:21:39.508Z,6.38
2022-08-30T23:27:02.994Z,6.28
2022-08-30T23:32:24.585Z,6.45
2022-08-30T23:37:45.566Z,6.40
2022-08-30T23:43:09.709Z,6.78
2022-08-30T23:48:31.242Z,5.95
2022-08-30T23:53:52.620Z,7.15
2022-08-30T23:59:14.355Z,6.45
